createdAt,value
2018-07-12T16:43:34.300Z,33.9
2018-07-12T16:44:24.364Z,33.9
2018-07-12T16:45:13.964Z,33.8
2018-07-12T16:46:04.494Z,33.8
2018-07-12T16:46:54.277Z,33.6
2018-07-12T16:47:44.673Z,33.6
2018-07-12T16:49:18.775Z,33.4
2018-07-12T16:50:09.055Z,33.3
2018-07-12T16:50:58.848Z,33.3
2018-07-12T16:51:48.646Z,33.2
2018-07-12T16:52:38.971Z,33.1
2018-07-12T16:53:29.334Z,33
2018-07-12T16:54:19.142Z,32.9
2018-07-12T16:55:09.470Z,32.8
2018-07-12T16:55:58.970Z,32.8
2018-07-12T16:56:49.045Z,32.6
2018-07-12T16:57:39.643Z,32.6
2018-07-12T16:58:29.706Z,32.5
2018-07-12T16:59:19.776Z,32.4
2018-07-12T17:00:09.558Z,32.3
2018-07-12T17:00:59.328Z,32.3
2018-07-12T17:01:49.413Z,32.2
2018-07-12T17:02:40.057Z,32.1
2018-07-12T17:03:30.084Z,32.1
2018-07-12T17:04:20.149Z,32
2018-07-12T17:05:10.221Z,31.9
2018-07-12T17:06:00.018Z,31.8
2018-07-12T17:06:50.384Z,31.8
2018-07-12T17:07:40.661Z,31.7
2018-07-12T17:08:30.532Z,31.6
2018-07-12T17:09:20.274Z,31.6
2018-07-12T17:10:10.606Z,31.5
2018-07-12T17:11:00.691Z,31.4
2018-07-12T17:11:50.742Z,31.4
2018-07-12T17:12:40.809Z,31.3
2018-07-12T17:13:30.591Z,31.2
2018-07-12T17:14:20.925Z,31.1
2018-07-12T17:15:10.444Z,31.1
2018-07-12T17:16:00.788Z,31
2018-07-12T17:16:50.843Z,30.9
2018-07-12T17:17:41.170Z,30.9
2018-07-12T17:18:30.969Z,30.8
2018-07-12T17:19:21.017Z,30.7
2018-07-12T17:20:11.102Z,30.6
2018-07-12T17:21:01.150Z,30.6
2018-07-12T17:21:51.493Z,30.4
2018-07-12T17:22:41.295Z,30.4
2018-07-12T17:23:31.640Z,30.3
2018-07-12T17:24:21.686Z,30.2
2018-07-12T17:25:11.200Z,30.1
2018-07-12T17:26:01.904Z,30.1
2018-07-12T17:26:51.625Z,29.9
2018-07-12T17:27:41.955Z,29.9
2018-07-12T17:28:32.015Z,29.8
2018-07-12T17:29:22.103Z,29.8
2018-07-12T17:30:11.870Z,29.7
2018-07-12T17:31:02.380Z,29.6
2018-07-12T17:31:52.270Z,29.5
2018-07-12T17:32:42.330Z,29.4
2018-07-12T17:33:32.425Z,29.3
2018-07-12T17:34:22.198Z,29.3
2018-07-12T17:35:12.530Z,29.2
2018-07-12T17:36:02.333Z,29.1
2018-07-12T17:36:52.659Z,29
2018-07-12T17:37:42.446Z,28.9
2018-07-12T17:38:32.812Z,28.9
2018-07-12T17:39:22.868Z,28.8
2018-07-12T17:40:12.926Z,28.8
2018-07-12T17:41:03.257Z,28.6
2018-07-12T17:41:53.037Z,28.6
2018-07-12T17:42:42.844Z,28.5
2018-07-12T17:43:33.194Z,28.4
2018-07-12T17:44:23.236Z,28.4
2018-07-12T17:45:13.294Z,28.3
2018-07-12T17:46:03.088Z,28.3
2018-07-12T17:46:53.442Z,28.2
2018-07-12T17:47:43.885Z,28.1
2018-07-12T17:48:33.571Z,28.1
2018-07-12T17:49:23.616Z,27.9
2018-07-12T17:50:13.404Z,27.9
2018-07-12T17:51:53.862Z,27.8
2018-07-12T17:52:43.866Z,27.7
2018-07-12T17:53:33.926Z,27.6
2018-07-12T17:54:24.023Z,27.6
2018-07-12T17:55:14.064Z,27.5
2018-07-12T17:56:04.248Z,27.4
2018-07-12T17:56:54.210Z,27.3
2018-07-12T17:57:43.693Z,27.3
2018-07-12T17:58:34.325Z,27.3
2018-07-12T17:59:24.382Z,27.1
2018-07-12T18:00:14.445Z,27.1
2018-07-12T18:01:04.231Z,27
2018-07-12T18:01:54.584Z,26.9
2018-07-12T18:02:44.655Z,26.9
2018-07-12T18:03:34.716Z,26.8
2018-07-12T18:04:24.767Z,26.8
2018-07-12T18:05:15.491Z,26.7
2018-07-12T18:06:04.952Z,26.6
2018-07-12T18:06:54.958Z,26.6
2018-07-12T18:07:44.744Z,26.5
2018-07-12T18:08:34.810Z,26.4
2018-07-12T18:09:24.895Z,26.4
2018-07-12T18:10:15.287Z,26.3
2018-07-12T18:11:05.287Z,26.3
2018-07-12T18:11:55.360Z,26.2
2018-07-12T18:12:45.420Z,26.1
2018-07-12T18:13:35.253Z,26.1
2018-07-12T18:14:26.116Z,26
2018-07-12T18:15:15.631Z,25.9
2018-07-12T18:16:05.679Z,25.9
2018-07-12T18:16:55.760Z,25.8
2018-07-12T18:17:45.533Z,25.8
2018-07-12T18:18:35.853Z,25.7
2018-07-12T18:19:25.950Z,25.7
2018-07-12T18:20:15.994Z,25.6
2018-07-12T18:21:05.777Z,25.6
2018-07-12T18:21:57.188Z,25.5
2018-07-12T18:22:45.907Z,25.4
2018-07-12T18:23:36.249Z,25.4
2018-07-12T18:24:26.318Z,25.3
2018-07-12T18:25:16.089Z,25.3
2018-07-12T18:26:05.964Z,25.3
2018-07-12T18:26:56.512Z,25.2
2018-07-12T18:27:46.275Z,25.1
2018-07-12T18:28:36.342Z,25.1
2018-07-12T18:29:26.699Z,25
2018-07-12T18:30:16.758Z,25
2018-07-12T18:31:06.824Z,24.9
2018-07-12T18:31:56.890Z,24.9
2018-07-12T18:32:46.945Z,24.8
2018-07-12T18:33:37.039Z,24.8
2018-07-12T18:34:26.794Z,24.8
2018-07-12T18:35:17.196Z,24.7
2018-07-12T18:36:07.241Z,24.6
2018-07-12T18:36:57.264Z,24.6
2018-07-12T18:37:47.069Z,24.5
2018-07-12T18:38:37.408Z,24.4
2018-07-12T18:39:27.454Z,24.4
2018-07-12T18:40:17.247Z,24.4
2018-07-12T18:41:07.595Z,24.3
2018-07-12T18:41:57.648Z,24.3
2018-07-12T18:42:47.713Z,24.2
2018-07-12T18:43:38.206Z,24.2
2018-07-12T18:44:27.840Z,24.1
2018-07-12T18:45:17.688Z,24.1
2018-07-12T18:46:07.700Z,23.9
2018-07-12T18:46:58.038Z,23.9
2018-07-12T18:47:48.098Z,23.8
2018-07-12T18:48:38.183Z,23.8
2018-07-12T18:49:28.223Z,23.8
2018-07-12T18:50:18.023Z,23.7
2018-07-12T18:51:08.357Z,23.6
2018-07-12T18:51:58.425Z,23.6
2018-07-12T18:52:48.215Z,23.6
2018-07-12T18:53:38.551Z,23.5
2018-07-12T18:54:28.610Z,23.4
2018-07-12T18:55:18.447Z,23.4
2018-07-12T18:56:08.480Z,23.4
2018-07-12T18:56:58.821Z,23.3
2018-07-12T18:57:48.862Z,23.3
2018-07-12T18:58:38.649Z,23.3
2018-07-12T18:59:28.993Z,23.2
2018-07-12T19:00:19.065Z,23.1
2018-07-12T19:01:09.115Z,23.1
2018-07-12T19:01:59.205Z,23.1
2018-07-12T19:02:49.248Z,23
2018-07-12T19:03:39.311Z,23
2018-07-12T19:04:29.382Z,22.9
2018-07-12T19:05:19.529Z,22.9
2018-07-12T19:06:09.506Z,22.9
2018-07-12T19:06:59.613Z,22.8
2018-07-12T19:07:49.629Z,22.8
2018-07-12T19:08:40.022Z,22.8
2018-07-12T19:09:29.519Z,22.7
2018-07-12T19:10:19.864Z,22.7
2018-07-12T19:11:09.901Z,22.6
2018-07-12T19:11:59.973Z,22.6
2018-07-12T19:12:49.730Z,22.6
2018-07-12T19:13:40.081Z,22.6
2018-07-12T19:14:30.142Z,22.5
2018-07-12T19:15:20.577Z,22.4
2018-07-12T19:16:10.272Z,22.4
2018-07-12T19:17:00.354Z,22.4
2018-07-12T19:17:50.395Z,22.3
2018-07-12T19:18:40.483Z,22.3
2018-07-12T19:19:30.534Z,22.3
2018-07-12T19:20:20.647Z,22.3
2018-07-12T19:21:10.727Z,22.2
2018-07-12T19:22:00.734Z,22.1
2018-07-12T19:22:50.801Z,22.1
2018-07-12T19:23:40.877Z,22.1
2018-07-12T19:24:30.946Z,22.1
2018-07-12T19:25:20.981Z,22.1
2018-07-12T19:26:11.068Z,22
2018-07-12T19:27:01.133Z,22
2018-07-12T19:27:50.896Z,21.9
2018-07-12T19:28:40.678Z,21.9
2018-07-12T19:29:31.326Z,21.9
2018-07-12T19:30:21.097Z,21.8
2018-07-12T19:31:11.240Z,21.8
2018-07-12T19:32:01.513Z,21.8
2018-07-12T19:32:51.568Z,21.8
2018-07-12T19:33:42.088Z,21.7
2018-07-12T19:34:31.428Z,21.7
2018-07-12T19:35:21.794Z,21.7
2018-07-12T19:36:11.841Z,21.6
2018-07-12T19:37:01.886Z,21.6
2018-07-12T19:37:51.946Z,21.6
2018-07-12T19:38:42.000Z,21.6
2018-07-12T19:39:31.508Z,21.6
2018-07-12T19:40:22.147Z,21.5
2018-07-12T19:41:12.201Z,21.5
2018-07-12T19:42:02.285Z,21.5
2018-07-12T19:42:52.061Z,21.5
2018-07-12T19:43:42.204Z,21.4
2018-07-12T19:44:32.479Z,21.4
2018-07-12T19:45:22.537Z,21.4
2018-07-12T19:46:12.018Z,21.4
2018-07-12T19:47:02.650Z,21.4
2018-07-12T19:47:52.724Z,21.4
2018-07-12T19:48:42.769Z,21.4
2018-07-12T19:49:32.840Z,21.3
2018-07-12T19:50:22.904Z,21.3
2018-07-12T19:51:12.958Z,21.3
2018-07-12T19:52:02.759Z,21.3
2018-07-12T19:52:53.095Z,21.3
2018-07-12T19:53:43.151Z,21.3
2018-07-12T19:54:33.237Z,21.2
2018-07-12T19:55:23.422Z,21.2
2018-07-12T19:56:13.351Z,21.2
2018-07-12T19:59:33.611Z,21.1
2018-07-12T20:00:23.701Z,21.1
2018-07-12T20:01:13.478Z,21
2018-07-12T20:02:03.812Z,21
2018-07-12T20:02:53.861Z,21
2018-07-12T20:03:44.117Z,20.9
2018-07-12T20:04:34.029Z,20.9
2018-07-12T20:05:23.791Z,20.9
2018-07-12T20:06:13.643Z,20.9
2018-07-12T20:07:04.196Z,20.9
2018-07-12T20:07:54.275Z,20.9
2018-07-12T20:08:44.317Z,20.8
2018-07-12T20:09:34.387Z,20.8
2018-07-12T20:10:24.166Z,20.8
2018-07-12T20:11:14.508Z,20.8
2018-07-12T20:12:04.293Z,20.7
2018-07-12T20:12:54.668Z,20.7
2018-07-12T20:13:44.695Z,20.7
2018-07-12T20:14:34.477Z,20.6
2018-07-12T20:15:24.554Z,20.6
2018-07-12T20:16:14.127Z,20.6
2018-07-12T20:17:04.475Z,20.6
2018-07-12T20:17:54.532Z,20.6
2018-07-12T20:18:45.085Z,20.5
2018-07-12T20:19:35.145Z,20.5
2018-07-12T20:20:25.213Z,20.5
2018-07-12T20:21:15.298Z,20.4
2018-07-12T20:22:05.347Z,20.4
2018-07-12T20:22:55.399Z,20.4
2018-07-12T20:23:45.467Z,20.4
2018-07-12T20:24:35.259Z,20.4
2018-07-12T20:25:26.217Z,20.3
2018-07-12T20:26:15.919Z,20.3
2018-07-12T20:27:05.726Z,20.3
2018-07-12T20:27:55.517Z,20.3
2018-07-12T20:28:45.842Z,20.2
2018-07-12T20:29:35.909Z,20.2
2018-07-12T20:30:25.971Z,20.2
2018-07-12T20:31:16.572Z,20.2
2018-07-12T20:32:05.836Z,20.1
2018-07-12T20:32:56.194Z,20.1
2018-07-12T20:33:46.280Z,20.1
2018-07-12T20:34:35.766Z,20.1
2018-07-12T20:35:25.816Z,20
2018-07-12T20:36:16.162Z,20
2018-07-12T20:37:06.499Z,20
2018-07-12T20:37:56.297Z,19.9
2018-07-12T20:38:46.102Z,19.9
2018-07-12T20:39:36.687Z,19.9
2018-07-12T20:40:26.753Z,19.9
2018-07-12T20:41:16.527Z,19.8
2018-07-12T20:42:06.880Z,19.8
2018-07-12T20:42:56.959Z,19.8
2018-07-12T20:43:47.009Z,19.8
2018-07-12T20:44:37.074Z,19.7
2018-07-12T20:45:27.149Z,19.7
2018-07-12T20:46:17.219Z,19.7
2018-07-12T20:47:07.256Z,19.6
2018-07-12T20:47:57.380Z,19.6
2018-07-12T20:48:47.211Z,19.6
2018-07-12T20:49:37.448Z,19.6
2018-07-12T20:50:27.251Z,19.6
2018-07-12T20:51:17.604Z,19.5
2018-07-12T20:52:07.368Z,19.5
2018-07-12T20:52:57.444Z,19.4
2018-07-12T20:53:47.787Z,19.4
2018-07-12T20:54:38.112Z,19.4
2018-07-12T20:55:27.890Z,19.3
2018-07-12T20:56:17.958Z,19.3
2018-07-12T20:57:08.018Z,19.3
2018-07-12T20:57:57.807Z,19.3
2018-07-12T20:58:48.143Z,19.2
2018-07-12T20:59:37.663Z,19.2
2018-07-12T21:00:28.028Z,19.1
2018-07-12T21:01:18.376Z,19.1
2018-07-12T21:02:08.458Z,19.1
2018-07-12T21:02:58.198Z,19.1
2018-07-12T21:03:48.576Z,19.1
2018-07-12T21:04:38.640Z,19
2018-07-12T21:05:28.393Z,19
2018-07-12T21:06:18.727Z,18.9
2018-07-12T21:07:08.516Z,18.9
2018-07-12T21:07:58.866Z,18.9
2018-07-12T21:08:48.940Z,18.9
2018-07-12T21:09:38.980Z,18.9
2018-07-12T21:10:29.075Z,18.9
2018-07-12T21:11:19.135Z,18.8
2018-07-12T21:12:09.178Z,18.8
2018-07-12T21:12:59.233Z,18.8
2018-07-12T21:13:49.301Z,18.8
2018-07-12T21:14:39.363Z,18.8
2018-07-12T21:17:59.082Z,18.6
2018-07-12T21:18:49.406Z,18.6
2018-07-12T21:19:39.784Z,18.6
2018-07-12T21:20:29.828Z,18.6
2018-07-12T21:21:19.898Z,18.6
2018-07-12T21:22:09.959Z,18.6
2018-07-12T21:23:00.012Z,18.6
2018-07-12T21:23:49.868Z,18.5
2018-07-12T21:24:40.209Z,18.5
2018-07-12T21:25:30.195Z,18.5
2018-07-12T21:26:20.285Z,18.5
2018-07-12T21:27:09.770Z,18.5
2018-07-12T21:27:59.833Z,18.4
2018-07-12T21:28:50.189Z,18.4
2018-07-12T21:29:40.521Z,18.4
2018-07-12T21:30:30.694Z,18.4
2018-07-12T21:31:20.376Z,18.4
2018-07-12T21:32:10.465Z,18.4
2018-07-12T21:33:00.775Z,18.3
2018-07-12T21:33:50.855Z,18.3
2018-07-12T21:34:40.644Z,18.3
2018-07-12T21:35:30.975Z,18.3
2018-07-12T21:36:20.495Z,18.3
2018-07-12T21:37:10.640Z,18.3
2018-07-12T21:38:00.692Z,18.3
2018-07-12T21:38:50.741Z,18.3
2018-07-12T21:39:41.295Z,18.3
2018-07-12T21:40:31.364Z,18.2
2018-07-12T21:41:21.461Z,18.2
2018-07-12T21:42:11.214Z,18.2
2018-07-12T21:43:01.554Z,18.2
2018-07-12T21:43:51.601Z,18.1
2018-07-12T21:44:41.687Z,18.1
2018-07-12T21:45:31.725Z,18.1
2018-07-12T21:46:21.823Z,18.1
2018-07-12T21:47:11.859Z,18.1
2018-07-12T21:48:01.958Z,18.1
2018-07-12T21:48:51.985Z,18.1
2018-07-12T21:49:41.766Z,18.1
2018-07-12T21:50:32.118Z,18.1
2018-07-12T21:51:21.912Z,18.1
2018-07-12T21:52:12.254Z,18.1
2018-07-12T21:53:02.304Z,18.1
2018-07-12T21:53:52.394Z,18.1
2018-07-12T21:54:42.438Z,18.1
2018-07-12T21:55:32.512Z,18.1
2018-07-12T21:56:22.577Z,18
2018-07-12T21:57:12.367Z,18.1
2018-07-12T21:58:02.696Z,18
2018-07-12T21:58:52.757Z,18
2018-07-12T21:59:42.836Z,17.9
2018-07-12T22:00:32.889Z,17.9
2018-07-12T22:01:22.987Z,17.9
2018-07-12T22:02:12.738Z,17.9
2018-07-12T22:03:02.538Z,17.9
2018-07-12T22:03:53.141Z,17.9
2018-07-12T22:04:43.238Z,17.9
2018-07-12T22:05:33.012Z,17.9
2018-07-12T22:06:23.094Z,17.8
2018-07-12T22:07:13.402Z,17.8
2018-07-12T22:08:03.296Z,17.8
2018-07-12T22:08:53.538Z,17.8
2018-07-12T22:09:43.310Z,17.8
2018-07-12T22:10:33.664Z,17.8
2018-07-12T22:11:23.434Z,17.8
2018-07-12T22:12:13.805Z,17.8
2018-07-12T22:13:03.848Z,17.7
2018-07-12T22:13:54.115Z,17.7
2018-07-12T22:14:43.991Z,17.7
2018-07-12T22:15:34.035Z,17.7
2018-07-12T22:16:24.103Z,17.6
2018-07-12T22:17:14.157Z,17.6
2018-07-12T22:18:03.945Z,17.6
2018-07-12T22:18:54.003Z,17.6
2018-07-12T22:19:44.372Z,17.6
2018-07-12T22:20:34.408Z,17.6
2018-07-12T22:21:24.215Z,17.6
2018-07-12T22:22:14.537Z,17.5
2018-07-12T22:23:04.314Z,17.5
2018-07-12T22:23:54.669Z,17.5
2018-07-12T22:24:44.482Z,17.5
2018-07-12T22:25:34.797Z,17.4
2018-07-12T22:26:24.314Z,17.4
2018-07-12T22:27:14.940Z,17.4
2018-07-12T22:28:04.804Z,17.4
2018-07-12T22:28:55.050Z,17.4
2018-07-12T22:29:45.107Z,17.4
2018-07-12T22:30:35.475Z,17.4
2018-07-12T22:31:25.242Z,17.3
2018-07-12T22:32:15.299Z,17.3
2018-07-12T22:33:05.395Z,17.3
2018-07-12T22:33:55.440Z,17.3
2018-07-12T22:34:45.526Z,17.3
2018-07-12T22:35:35.582Z,17.3
2018-07-12T22:36:25.673Z,17.3
2018-07-12T22:37:15.712Z,17.2
2018-07-12T22:38:05.476Z,17.2
2018-07-12T22:38:55.826Z,17.2
2018-07-12T22:39:45.896Z,17.2
2018-07-12T22:40:35.959Z,17.2
2018-07-12T22:41:25.446Z,17.1
2018-07-12T22:42:16.080Z,17.1
2018-07-12T22:43:05.891Z,17.1
2018-07-12T22:43:55.935Z,17.1
2018-07-12T22:44:45.777Z,17.1
2018-07-12T22:45:35.786Z,17.1
2018-07-12T22:46:26.418Z,17.1
2018-07-12T22:47:16.176Z,17.1
2018-07-12T22:52:16.858Z,16.9
2018-07-12T22:53:06.651Z,16.9
2018-07-12T22:53:56.995Z,16.9
2018-07-12T22:54:46.569Z,16.9
2018-07-12T22:55:36.631Z,16.9
2018-07-12T22:56:26.688Z,16.9
2018-07-12T22:57:16.470Z,16.9
2018-07-12T22:58:07.309Z,16.9
2018-07-12T22:58:57.066Z,16.9
2018-07-12T22:59:47.445Z,16.9
2018-07-12T23:00:37.202Z,16.9
2018-07-12T23:01:27.275Z,16.8
2018-07-12T23:02:17.350Z,16.8
2018-07-12T23:03:07.690Z,16.8
2018-07-12T23:03:57.732Z,16.8
2018-07-12T23:04:47.537Z,16.8
2018-07-12T23:05:37.585Z,16.8
2018-07-12T23:06:27.380Z,16.8
2018-07-12T23:07:18.010Z,16.8
2018-07-12T23:08:08.056Z,16.8
2018-07-12T23:08:58.133Z,16.8
2018-07-12T23:09:47.648Z,16.8
2018-07-12T23:10:37.685Z,16.8
2018-07-12T23:11:28.320Z,16.8
2018-07-12T23:12:18.372Z,16.8
2018-07-12T23:13:08.436Z,16.8
2018-07-12T23:13:58.511Z,16.8
2018-07-12T23:14:48.573Z,16.8
2018-07-12T23:15:38.642Z,16.8
2018-07-12T23:16:28.714Z,16.8
2018-07-12T23:17:18.766Z,16.8
2018-07-12T23:18:08.866Z,16.8
2018-07-12T23:18:58.892Z,16.8
2018-07-12T23:19:48.972Z,16.8
2018-07-12T23:20:39.034Z,16.7
2018-07-12T23:21:29.107Z,16.8
2018-07-12T23:22:19.167Z,16.7
2018-07-12T23:23:08.933Z,16.7
2018-07-12T23:23:59.280Z,16.7
2018-07-12T23:24:49.667Z,16.8
2018-07-12T23:25:39.870Z,16.8
2018-07-12T23:26:29.474Z,16.8
2018-07-12T23:27:19.523Z,16.7
2018-07-12T23:28:09.579Z,16.7
2018-07-12T23:28:59.657Z,16.7
2018-07-12T23:29:49.739Z,16.8
2018-07-12T23:30:39.781Z,16.8
2018-07-12T23:31:29.573Z,16.8
2018-07-12T23:32:19.903Z,16.7
2018-07-12T23:33:09.977Z,16.8
2018-07-12T23:34:00.096Z,16.8
2018-07-12T23:34:50.093Z,16.8
2018-07-12T23:35:40.146Z,16.8
2018-07-12T23:36:30.217Z,16.7
2018-07-12T23:37:20.281Z,16.8
2018-07-12T23:38:10.067Z,16.8
2018-07-12T23:39:00.430Z,16.8
2018-07-12T23:39:50.182Z,16.7
2018-07-12T23:40:39.976Z,16.7
2018-07-12T23:41:30.335Z,16.7
2018-07-12T23:42:20.404Z,16.7
2018-07-12T23:43:10.750Z,16.7
2018-07-12T23:44:00.795Z,16.7
2018-07-12T23:44:50.885Z,16.6
2018-07-12T23:45:40.660Z,16.6
2018-07-12T23:46:30.696Z,16.6
2018-07-12T23:47:20.504Z,16.6
2018-07-12T23:48:10.862Z,16.6
2018-07-12T23:49:00.922Z,16.6
2018-07-12T23:49:50.966Z,16.6
2018-07-12T23:50:41.039Z,16.6
2018-07-12T23:51:31.385Z,16.6
2018-07-12T23:52:21.173Z,16.6
2018-07-12T23:53:11.214Z,16.6
2018-07-12T23:54:01.595Z,16.6
2018-07-12T23:54:51.627Z,16.5
2018-07-12T23:55:41.439Z,16.5
2018-07-12T23:56:31.485Z,16.5
2018-07-12T23:57:21.832Z,16.5
2018-07-12T23:58:11.607Z,16.5
2018-07-12T23:59:01.679Z,16.5
2018-07-12T23:59:52.067Z,16.4
